Time;durP1;ratioP1;P1;durP2;ratioP2;P2;SDS_P1;SDS_P2;PMS_P1;PMS_P2;Temp;Humidity;BMP_temperature;BMP_pressure;BME280_temperature;BME280_humidity;BME280_pressure;Samples;Min_cycle;Max_cycle;Signal;HPM_P1;HPM_P2
2022/01/12 00:02:00;;;;;;;9.73;6.37;;;;;;;;;;6288748;28;20254;-76
2022/01/12 00:05:05;;;;;;;12.37;6.33;;;;;;;;;;6287576;28;20398;-76
2022/01/12 00:08:12;;;;;;;10.50;6.57;;;;;;;;;;6288299;28;20185;-76
2022/01/12 00:11:17;;;;;;;8.13;5.57;;;;;;;;;;6288364;28;20230;-77
2022/01/12 00:14:23;;;;;;;9.83;6.67;;;;;;;;;;6287463;28;20223;-77
2022/01/12 00:17:27;;;;;;;7.80;5.90;;;;;;;;;;6287746;28;20423;-76
2022/01/12 00:20:32;;;;;;;9.13;5.80;;;;;;;;;;6288288;28;20226;-76
2022/01/12 00:23:38;;;;;;;9.60;6.30;;;;;;;;;;6288487;28;20184;-76
2022/01/12 00:33:07;;;;;;;13.50;6.83;;;;;;;;;;6287751;28;20238;-76
2022/01/12 00:33:32;;;;;;;17.07;7.13;;;;;;;;;;6288046;28;20238;-76
2022/01/12 00:36:37;;;;;;;14.53;6.87;;;;;;;;;;6287590;28;20230;-76
2022/01/12 00:39:41;;;;;;;13.07;7.50;;;;;;;;;;6287742;28;20225;-76
2022/01/12 00:42:46;;;;;;;9.10;5.97;;;;;;;;;;6269674;28;20204;-76
2022/01/12 00:45:51;;;;;;;11.97;6.43;;;;;;;;;;6287305;28;20238;-76
2022/01/12 00:48:57;;;;;;;10.97;6.93;;;;;;;;;;6270087;28;20210;-76
2022/01/12 00:52:01;;;;;;;14.87;7.23;;;;;;;;;;6268829;28;20240;-76
2022/01/12 00:55:06;;;;;;;11.50;6.97;;;;;;;;;;6286573;28;20292;-76
2022/01/12 00:58:14;;;;;;;13.57;6.97;;;;;;;;;;6269789;28;20195;-76
2022/01/12 01:01:22;;;;;;;13.30;7.47;;;;;;;;;;6269087;28;20235;-76
2022/01/12 01:04:26;;;;;;;15.57;7.33;;;;;;;;;;6286118;28;20382;-76
2022/01/12 01:07:32;;;;;;;15.30;7.87;;;;;;;;;;6269389;28;20391;-76
2022/01/12 01:10:46;;;;;;;17.97;6.83;;;;;;;;;;6287016;28;20340;-76
2022/01/12 01:13:58;;;;;;;15.50;7.23;;;;;;;;;;6268999;28;20435;-76
2022/01/12 01:25:27;;;;;;;16.23;7.50;;;;;;;;;;6268929;28;20259;-76
2022/01/12 01:27:27;;;;;;;14.83;7.63;;;;;;;;;;6268236;28;20215;-76
2022/01/12 01:30:32;;;;;;;15.47;7.40;;;;;;;;;;6286815;28;20239;-77
2022/01/12 01:33:41;;;;;;;12.00;6.57;;;;;;;;;;6273459;28;20244;-76
2022/01/12 01:36:48;;;;;;;11.07;7.13;;;;;;;;;;6291037;28;20234;-76
2022/01/12 01:39:54;;;;;;;13.23;7.20;;;;;;;;;;6273526;28;20433;-76
2022/01/12 01:43:11;;;;;;;15.83;7.83;;;;;;;;;;6291014;28;20529;-76
2022/01/12 01:56:23;;;;;;;13.50;7.47;;;;;;;;;;6273516;28;20237;-76
2022/01/12 01:59:27;;;;;;;14.37;8.03;;;;;;;;;;6272829;28;20317;-76
2022/01/12 02:02:33;;;;;;;17.80;8.47;;;;;;;;;;6273930;28;20208;-76
2022/01/12 02:05:40;;;;;;;15.37;8.30;;;;;;;;;;6272778;28;20512;-76
2022/01/12 02:08:45;;;;;;;15.00;8.27;;;;;;;;;;6273040;28;20481;-77
2022/01/12 02:11:57;;;;;;;15.23;8.07;;;;;;;;;;6272359;28;20539;-76
2022/01/12 02:15:14;;;;;;;19.00;8.63;;;;;;;;;;6273020;28;20415;-76
2022/01/12 02:18:32;;;;;;;15.60;8.40;;;;;;;;;;6290702;28;20229;-76
2022/01/12 02:35:35;;;;;;;22.10;8.53;;;;;;;;;;6272200;28;20275;-76
2022/01/12 02:42:04;;;;;;;16.73;8.50;;;;;;;;;;6289624;28;20546;-76
2022/01/12 02:55:28;;;;;;;15.60;8.40;;;;;;;;;;6271826;28;20645;-76
2022/01/12 02:58:33;;;;;;;16.47;8.53;;;;;;;;;;6272273;28;20201;-76
2022/01/12 03:02:02;;;;;;;17.13;8.53;;;;;;;;;;6271160;28;20375;-76
2022/01/12 03:05:32;;;;;;;19.43;9.00;;;;;;;;;;6290188;28;20238;-76
2022/01/12 03:08:37;;;;;;;14.97;8.30;;;;;;;;;;6271971;28;20505;-76
2022/01/12 03:11:43;;;;;;;17.97;8.50;;;;;;;;;;6271396;28;20345;-76
2022/01/12 03:14:49;;;;;;;16.53;8.97;;;;;;;;;;6271738;28;20230;-76
2022/01/12 03:17:54;;;;;;;18.27;8.70;;;;;;;;;;6271770;28;20248;-76
2022/01/12 03:20:58;;;;;;;15.77;8.20;;;;;;;;;;6271279;28;20259;-76
2022/01/12 03:24:04;;;;;;;18.67;8.60;;;;;;;;;;6289949;28;20191;-76
2022/01/12 03:27:13;;;;;;;18.60;9.00;;;;;;;;;;6288884;28;20230;-76
2022/01/12 03:30:17;;;;;;;14.47;7.70;;;;;;;;;;6270838;28;20228;-76
2022/01/12 03:33:49;;;;;;;15.13;7.77;;;;;;;;;;6290156;28;20317;-76
2022/01/12 03:37:17;;;;;;;18.97;8.80;;;;;;;;;;6271293;28;20232;-76
2022/01/12 03:40:22;;;;;;;18.17;8.57;;;;;;;;;;6288029;28;20469;-76
2022/01/12 03:43:28;;;;;;;21.10;9.50;;;;;;;;;;6271936;28;20243;-76
2022/01/12 03:46:34;;;;;;;17.77;8.43;;;;;;;;;;6288467;28;20242;-76
2022/01/12 03:49:38;;;;;;;15.50;7.83;;;;;;;;;;6270936;28;20292;-77
2022/01/12 03:52:43;;;;;;;21.93;9.97;;;;;;;;;;6270951;28;20407;-76
2022/01/12 03:55:47;;;;;;;17.73;8.53;;;;;;;;;;6269475;28;20231;-76
2022/01/12 03:58:53;;;;;;;16.27;9.20;;;;;;;;;;6284037;28;20205;-76
2022/01/12 04:01:58;;;;;;;15.70;7.50;;;;;;;;;;6290593;28;20422;-76
2022/01/12 04:05:10;;;;;;;24.63;9.77;;;;;;;;;;6270592;28;20289;-76
2022/01/12 04:08:21;;;;;;;19.47;8.90;;;;;;;;;;6272044;28;20350;-76
2022/01/12 04:11:28;;;;;;;15.33;8.43;;;;;;;;;;6270348;28;20227;-76
2022/01/12 04:14:33;;;;;;;17.10;8.63;;;;;;;;;;6287995;28;20215;-77
2022/01/12 04:17:37;;;;;;;17.00;8.77;;;;;;;;;;6270658;28;20207;-76
2022/01/12 04:20:45;;;;;;;17.73;9.00;;;;;;;;;;6270370;28;20241;-76
2022/01/12 04:23:49;;;;;;;17.93;9.27;;;;;;;;;;6287570;28;20500;-76
2022/01/12 04:26:53;;;;;;;19.27;9.23;;;;;;;;;;6269972;28;20249;-76
2022/01/12 04:29:59;;;;;;;21.50;9.70;;;;;;;;;;6288015;28;20231;-77
2022/01/12 04:33:04;;;;;;;19.23;9.10;;;;;;;;;;6270151;28;20290;-76
2022/01/12 04:36:11;;;;;;;19.00;8.73;;;;;;;;;;6270261;28;20398;-76
2022/01/12 04:39:16;;;;;;;18.10;8.27;;;;;;;;;;6269677;28;20351;-76
2022/01/12 04:42:21;;;;;;;22.03;9.50;;;;;;;;;;6294232;28;20222;-76
2022/01/12 04:45:39;;;;;;;22.40;8.97;;;;;;;;;;6312912;28;20237;-76
2022/01/12 04:48:53;;;;;;;20.37;9.20;;;;;;;;;;6313694;28;20276;-76
2022/01/12 04:51:57;;;;;;;22.47;9.40;;;;;;;;;;6311721;28;20366;-76
2022/01/12 04:55:01;;;;;;;19.33;8.87;;;;;;;;;;6294216;28;20299;-76
2022/01/12 04:58:07;;;;;;;21.23;8.57;;;;;;;;;;6287181;28;20203;-76
2022/01/12 05:01:22;;;;;;;19.03;9.17;;;;;;;;;;6253248;28;20228;-76
2022/01/12 05:07:59;;;;;;;21.07;9.70;;;;;;;;;;6260951;28;20368;-76
2022/01/12 05:14:36;;;;;;;20.93;9.33;;;;;;;;;;6260259;28;20225;-77
2022/01/12 05:17:41;;;;;;;17.70;9.53;;;;;;;;;;6261718;28;20219;-76
2022/01/12 05:20:46;;;;;;;19.17;8.43;;;;;;;;;;6261258;28;20259;-76
2022/01/12 05:23:51;;;;;;;18.13;9.07;;;;;;;;;;6261093;28;20285;-76
2022/01/12 05:26:55;;;;;;;18.50;8.43;;;;;;;;;;6260535;28;20359;-76
2022/01/12 05:29:59;;;;;;;17.80;8.80;;;;;;;;;;6261034;28;20334;-76
2022/01/12 05:33:06;;;;;;;19.00;8.93;;;;;;;;;;6260541;28;20471;-76
2022/01/12 05:36:11;;;;;;;21.20;9.60;;;;;;;;;;6261998;28;20232;-76
2022/01/12 05:39:15;;;;;;;23.67;9.70;;;;;;;;;;6260236;28;20205;-76
2022/01/12 05:42:20;;;;;;;18.13;8.80;;;;;;;;;;6287173;28;20257;-76
2022/01/12 05:45:25;;;;;;;19.40;9.67;;;;;;;;;;6259615;28;20240;-76
2022/01/12 05:51:53;;;;;;;23.73;10.90;;;;;;;;;;6257211;28;20232;-78
2022/01/12 05:54:57;;;;;;;19.07;9.53;;;;;;;;;;6261963;28;20242;-76
2022/01/12 05:58:02;;;;;;;29.60;10.37;;;;;;;;;;6261022;28;20236;-76
2022/01/12 06:01:09;;;;;;;23.33;9.67;;;;;;;;;;6260613;28;20239;-76
2022/01/12 06:04:15;;;;;;;22.77;9.47;;;;;;;;;;6260411;28;20207;-76
2022/01/12 06:07:20;;;;;;;22.27;9.97;;;;;;;;;;6269523;28;20222;-77
2022/01/12 06:10:24;;;;;;;27.50;9.83;;;;;;;;;;6259400;28;20423;-76
2022/01/12 06:13:30;;;;;;;21.07;9.50;;;;;;;;;;6246368;28;20275;-76
2022/01/12 06:16:35;;;;;;;20.97;9.80;;;;;;;;;;6254962;28;20232;-76
2022/01/12 06:19:41;;;;;;;22.53;9.40;;;;;;;;;;6265013;28;20231;-77
2022/01/12 06:23:11;;;;;;;25.40;9.83;;;;;;;;;;6266213;28;20490;-77
2022/01/12 06:26:23;;;;;;;20.37;9.70;;;;;;;;;;6264410;28;20478;-76
2022/01/12 06:29:39;;;;;;;23.30;10.87;;;;;;;;;;6264654;28;20280;-77
2022/01/12 06:32:43;;;;;;;20.93;9.63;;;;;;;;;;6266767;28;20240;-76
2022/01/12 06:35:49;;;;;;;23.80;10.20;;;;;;;;;;6264711;28;20515;-76
2022/01/12 06:38:53;;;;;;;24.43;10.43;;;;;;;;;;6265210;28;20185;-77
2022/01/12 06:41:58;;;;;;;26.00;9.73;;;;;;;;;;6263397;28;20298;-77
2022/01/12 06:45:03;;;;;;;18.63;9.27;;;;;;;;;;6264339;28;20235;-77
2022/01/12 06:48:11;;;;;;;26.47;10.30;;;;;;;;;;6264839;28;20217;-76
2022/01/12 06:51:20;;;;;;;24.97;10.13;;;;;;;;;;6264816;28;20531;-77
2022/01/12 06:54:24;;;;;;;20.07;9.77;;;;;;;;;;6263912;28;20300;-77
2022/01/12 06:57:30;;;;;;;20.03;9.27;;;;;;;;;;6265069;28;20319;-78
2022/01/12 07:00:35;;;;;;;27.10;9.97;;;;;;;;;;6265037;28;20251;-78
2022/01/12 07:03:41;;;;;;;22.60;9.07;;;;;;;;;;6265016;28;20207;-78
2022/01/12 07:06:47;;;;;;;22.57;9.20;;;;;;;;;;6263034;28;20294;-76
2022/01/12 07:09:54;;;;;;;18.70;8.50;;;;;;;;;;6262971;28;20412;-76
2022/01/12 07:13:00;;;;;;;20.33;9.77;;;;;;;;;;6262985;28;20275;-76
2022/01/12 07:16:05;;;;;;;17.43;9.00;;;;;;;;;;6262475;28;20238;-77
2022/01/12 07:19:11;;;;;;;20.00;9.23;;;;;;;;;;6264257;28;20202;-77
2022/01/12 07:22:18;;;;;;;19.20;9.03;;;;;;;;;;6262156;28;20292;-77
2022/01/12 07:25:23;;;;;;;14.93;8.43;;;;;;;;;;6264801;28;20626;-77
2022/01/12 07:28:28;;;;;;;17.87;7.77;;;;;;;;;;6263638;28;20186;-77
2022/01/12 07:31:32;;;;;;;14.67;7.70;;;;;;;;;;6263820;28;20279;-77
2022/01/12 07:34:37;;;;;;;14.50;7.60;;;;;;;;;;6261765;28;20243;-77
2022/01/12 07:37:42;;;;;;;16.93;8.40;;;;;;;;;;6265418;28;20191;-77
2022/01/12 07:40:46;;;;;;;16.70;7.13;;;;;;;;;;6264047;28;20230;-75
2022/01/12 07:43:51;;;;;;;24.50;7.33;;;;;;;;;;6264945;28;20226;-75
2022/01/12 07:46:55;;;;;;;16.90;7.70;;;;;;;;;;6261878;28;20232;-74
2022/01/12 07:50:00;;;;;;;17.97;7.93;;;;;;;;;;6263302;28;20243;-77
2022/01/12 07:53:06;;;;;;;15.00;8.37;;;;;;;;;;6263314;28;20186;-75
2022/01/12 07:56:13;;;;;;;17.03;7.37;;;;;;;;;;6262834;28;20254;-75
2022/01/12 07:59:17;;;;;;;15.03;6.60;;;;;;;;;;6264060;28;20189;-76
2022/01/12 08:02:21;;;;;;;12.23;7.00;;;;;;;;;;6288030;28;20407;-76
2022/01/12 08:05:26;;;;;;;15.23;6.77;;;;;;;;;;6287363;28;20542;-76
2022/01/12 08:08:33;;;;;;;11.93;5.87;;;;;;;;;;6288926;28;20257;-76
2022/01/12 08:11:37;;;;;;;15.07;6.97;;;;;;;;;;6287342;28;20535;-75
2022/01/12 08:14:42;;;;;;;15.43;6.60;;;;;;;;;;6287822;28;20281;-75
2022/01/12 08:17:46;;;;;;;10.70;6.37;;;;;;;;;;6288680;28;20193;-76
2022/01/12 08:20:51;;;;;;;12.20;6.77;;;;;;;;;;6287213;28;20232;-75
2022/01/12 08:23:57;;;;;;;8.43;5.53;;;;;;;;;;6287783;28;20188;-75
2022/01/12 08:27:09;;;;;;;6.53;4.53;;;;;;;;;;6287604;28;20301;-75
2022/01/12 08:30:17;;;;;;;10.70;6.17;;;;;;;;;;6286909;28;20414;-75
2022/01/12 08:33:23;;;;;;;12.40;6.73;;;;;;;;;;6269449;28;20231;-75
2022/01/12 08:36:27;;;;;;;10.37;6.23;;;;;;;;;;6287395;28;20233;-76
2022/01/12 08:39:33;;;;;;;9.27;6.23;;;;;;;;;;6287533;28;20219;-76
2022/01/12 08:42:37;;;;;;;11.63;6.23;;;;;;;;;;6288466;28;20267;-76
2022/01/12 08:45:41;;;;;;;9.63;5.70;;;;;;;;;;6268665;28;20589;-76
2022/01/12 08:48:46;;;;;;;7.47;5.70;;;;;;;;;;6287582;28;20192;-76
2022/01/12 08:51:50;;;;;;;8.63;6.43;;;;;;;;;;6286577;28;20277;-76
2022/01/12 08:54:56;;;;;;;6.60;4.97;;;;;;;;;;6286993;28;20242;-76
2022/01/12 08:58:00;;;;;;;8.10;5.50;;;;;;;;;;6292880;28;20212;-76
2022/01/12 09:01:04;;;;;;;6.27;5.60;;;;;;;;;;6311885;28;20227;-76
2022/01/12 09:04:11;;;;;;;8.87;5.27;;;;;;;;;;6312373;28;20227;-76
2022/01/12 09:07:16;;;;;;;7.97;5.60;;;;;;;;;;6311642;28;20241;-76
2022/01/12 09:10:22;;;;;;;10.73;5.20;;;;;;;;;;6311532;28;20294;-76
2022/01/12 09:13:27;;;;;;;9.13;5.47;;;;;;;;;;6312246;28;20183;-76
2022/01/12 09:16:31;;;;;;;8.63;5.97;;;;;;;;;;6310689;28;20518;-76
2022/01/12 09:19:35;;;;;;;9.03;5.07;;;;;;;;;;6310443;28;20494;-76
2022/01/12 09:22:40;;;;;;;6.53;5.17;;;;;;;;;;6310846;28;20195;-76
2022/01/12 09:25:46;;;;;;;8.37;4.73;;;;;;;;;;6310710;28;20591;-77
2022/01/12 09:28:50;;;;;;;8.23;5.67;;;;;;;;;;6311823;28;20187;-76
2022/01/12 09:31:55;;;;;;;6.33;4.03;;;;;;;;;;6310852;28;20242;-76
2022/01/12 09:34:59;;;;;;;8.50;4.77;;;;;;;;;;6310201;28;20303;-76
2022/01/12 09:38:03;;;;;;;7.57;4.60;;;;;;;;;;6311946;28;20214;-76
2022/01/12 09:41:09;;;;;;;6.50;4.90;;;;;;;;;;6310990;28;20227;-76
2022/01/12 09:44:15;;;;;;;4.87;4.37;;;;;;;;;;6311607;28;20190;-76
2022/01/12 09:47:19;;;;;;;9.00;4.30;;;;;;;;;;6310720;28;20221;-76
2022/01/12 09:50:24;;;;;;;8.00;4.23;;;;;;;;;;6310954;28;20334;-76
2022/01/12 09:53:29;;;;;;;4.07;3.77;;;;;;;;;;6315232;28;20211;-76
2022/01/12 09:56:35;;;;;;;7.23;4.47;;;;;;;;;;6316036;28;20280;-76
2022/01/12 09:59:44;;;;;;;5.40;4.57;;;;;;;;;;6297035;28;20234;-76
2022/01/12 10:02:49;;;;;;;4.93;4.43;;;;;;;;;;6315373;28;20235;-76
2022/01/12 10:05:54;;;;;;;4.83;4.43;;;;;;;;;;6314579;28;20296;-77
2022/01/12 10:08:59;;;;;;;8.57;3.97;;;;;;;;;;6315051;28;20513;-76
2022/01/12 10:12:10;;;;;;;3.60;3.37;;;;;;;;;;6315374;28;20247;-76
2022/01/12 10:15:15;;;;;;;3.57;3.30;;;;;;;;;;6297408;28;20231;-76
2022/01/12 10:18:24;;;;;;;7.03;4.23;;;;;;;;;;6316213;28;20211;-76
2022/01/12 10:21:31;;;;;;;5.03;3.87;;;;;;;;;;6315024;28;20543;-76
2022/01/12 10:24:37;;;;;;;5.03;4.10;;;;;;;;;;6315152;28;20231;-76
2022/01/12 10:27:43;;;;;;;5.87;3.63;;;;;;;;;;6315194;28;20187;-76
2022/01/12 10:30:56;;;;;;;3.43;3.23;;;;;;;;;;6314884;28;20236;-76
2022/01/12 10:34:03;;;;;;;5.43;3.87;;;;;;;;;;6315437;28;20237;-76
2022/01/12 10:37:11;;;;;;;8.50;3.73;;;;;;;;;;6314551;28;20273;-76
2022/01/12 10:40:15;;;;;;;3.30;3.13;;;;;;;;;;6314563;28;20229;-76
2022/01/12 10:43:33;;;;;;;5.13;3.90;;;;;;;;;;6316650;28;20186;-76
2022/01/12 10:46:37;;;;;;;2.90;2.70;;;;;;;;;;6314543;28;20295;-76
2022/01/12 10:49:43;;;;;;;4.17;3.33;;;;;;;;;;6314827;28;20337;-76
2022/01/12 10:52:50;;;;;;;7.57;3.70;;;;;;;;;;6315425;28;20217;-76
2022/01/12 10:56:04;;;;;;;5.73;3.27;;;;;;;;;;6313963;28;20230;-76
2022/01/12 10:59:17;;;;;;;3.57;3.27;;;;;;;;;;6298484;28;20278;-76
2022/01/12 11:02:21;;;;;;;4.13;3.80;;;;;;;;;;6289001;28;20211;-76
2022/01/12 11:05:27;;;;;;;7.30;3.13;;;;;;;;;;6279536;28;20232;-76
2022/01/12 11:08:32;;;;;;;4.20;3.60;;;;;;;;;;6264888;28;20189;-76
2022/01/12 11:11:36;;;;;;;3.47;3.23;;;;;;;;;;6264424;28;20282;-76
2022/01/12 11:14:42;;;;;;;4.30;3.00;;;;;;;;;;6264364;28;20234;-76
2022/01/12 11:17:49;;;;;;;4.40;3.37;;;;;;;;;;6264670;28;20259;-76
2022/01/12 11:20:57;;;;;;;3.93;3.63;;;;;;;;;;6264764;28;20234;-77
2022/01/12 11:24:02;;;;;;;3.70;3.00;;;;;;;;;;6264862;28;20191;-76
2022/01/12 11:27:07;;;;;;;3.50;3.03;;;;;;;;;;6263750;28;20620;-77
2022/01/12 11:30:20;;;;;;;3.17;2.90;;;;;;;;;;6263204;28;20230;-75
2022/01/12 11:33:38;;;;;;;3.20;2.90;;;;;;;;;;6263625;28;20268;-76
2022/01/12 11:36:42;;;;;;;5.83;2.73;;;;;;;;;;6263696;28;20239;-76
2022/01/12 11:39:48;;;;;;;3.63;3.10;;;;;;;;;;6263636;28;20251;-76
2022/01/12 11:42:53;;;;;;;5.80;3.33;;;;;;;;;;6263852;28;20360;-75
2022/01/12 11:46:04;;;;;;;6.73;2.93;;;;;;;;;;6264107;28;20248;-77
2022/01/12 11:49:09;;;;;;;7.67;2.97;;;;;;;;;;6264415;28;20268;-77
2022/01/12 11:52:17;;;;;;;9.73;2.90;;;;;;;;;;6264957;28;20232;-77
2022/01/12 11:55:21;;;;;;;7.07;3.10;;;;;;;;;;6263981;28;20248;-77
2022/01/12 11:58:26;;;;;;;8.07;3.40;;;;;;;;;;6263767;28;20281;-76
2022/01/12 12:01:44;;;;;;;4.57;2.97;;;;;;;;;;6263008;28;20231;-76
2022/01/12 12:04:56;;;;;;;7.90;2.53;;;;;;;;;;6263291;28;20304;-77
2022/01/12 12:08:03;;;;;;;6.30;2.80;;;;;;;;;;6263506;28;20302;-76
2022/01/12 12:11:10;;;;;;;3.73;2.43;;;;;;;;;;6263064;28;20257;-76
2022/01/12 12:14:16;;;;;;;9.43;3.00;;;;;;;;;;6264246;28;20185;-77
2022/01/12 12:17:23;;;;;;;5.30;3.50;;;;;;;;;;6287636;28;20235;-77
2022/01/12 12:20:27;;;;;;;7.03;2.83;;;;;;;;;;6287377;28;20292;-77
2022/01/12 12:23:32;;;;;;;8.87;2.90;;;;;;;;;;6288136;28;20265;-77
2022/01/12 12:26:45;;;;;;;6.57;2.50;;;;;;;;;;6287567;28;20546;-77
2022/01/12 12:29:50;;;;;;;8.77;2.83;;;;;;;;;;6287726;28;20260;-77
2022/01/12 12:32:58;;;;;;;6.50;3.00;;;;;;;;;;6288160;28;20236;-77
2022/01/12 12:36:05;;;;;;;11.97;2.87;;;;;;;;;;6287308;28;20301;-77
2022/01/12 12:39:15;;;;;;;7.33;2.77;;;;;;;;;;6286685;28;20208;-77
2022/01/12 12:42:20;;;;;;;4.20;2.50;;;;;;;;;;6286664;28;20510;-77
2022/01/12 12:45:24;;;;;;;9.13;2.90;;;;;;;;;;6286926;28;20229;-77
2022/01/12 12:48:31;;;;;;;7.13;2.40;;;;;;;;;;6287615;28;20188;-77
2022/01/12 12:51:36;;;;;;;7.50;2.33;;;;;;;;;;6286244;28;20235;-77
2022/01/12 12:54:43;;;;;;;6.93;2.63;;;;;;;;;;6287341;28;20225;-77
2022/01/12 12:57:49;;;;;;;10.87;2.43;;;;;;;;;;6291062;28;20505;-77
2022/01/12 13:00:53;;;;;;;5.50;3.10;;;;;;;;;;6312030;28;20255;-77
2022/01/12 13:04:01;;;;;;;4.20;2.30;;;;;;;;;;6312045;28;20261;-77
2022/01/12 13:07:13;;;;;;;8.27;2.60;;;;;;;;;;6311796;28;20227;-77
2022/01/12 13:10:19;;;;;;;3.77;2.40;;;;;;;;;;6312268;28;20285;-77
2022/01/12 13:13:23;;;;;;;3.83;2.17;;;;;;;;;;6311152;28;20372;-77
2022/01/12 13:16:28;;;;;;;2.20;2.07;;;;;;;;;;6311015;28;20578;-77
2022/01/12 13:21:07;;;;;;;8.47;2.00;;;;;;;;;;6311854;28;20209;-77
2022/01/12 13:23:02;;;;;;;3.67;2.03;;;;;;;;;;6312016;28;20224;-77
2022/01/12 13:26:09;;;;;;;4.83;2.10;;;;;;;;;;6311771;28;20234;-77
2022/01/12 13:29:14;;;;;;;9.07;2.23;;;;;;;;;;6316161;28;20425;-77
2022/01/12 13:32:21;;;;;;;5.00;2.20;;;;;;;;;;6316611;28;20227;-77
2022/01/12 13:35:29;;;;;;;11.63;2.30;;;;;;;;;;6316847;28;20300;-77
2022/01/12 13:38:33;;;;;;;6.00;1.90;;;;;;;;;;6317191;28;20260;-77
2022/01/12 13:41:39;;;;;;;7.40;2.07;;;;;;;;;;6316164;28;20293;-77
2022/01/12 13:44:43;;;;;;;5.90;1.90;;;;;;;;;;6315756;28;20519;-77
2022/01/12 13:47:56;;;;;;;1.90;1.80;;;;;;;;;;6317169;28;20223;-77
2022/01/12 13:51:03;;;;;;;11.23;2.07;;;;;;;;;;6315428;28;20469;-77
2022/01/12 13:54:11;;;;;;;13.23;2.10;;;;;;;;;;6316722;28;20186;-77
2022/01/12 13:57:16;;;;;;;11.77;2.20;;;;;;;;;;6315310;28;20232;-77
2022/01/12 14:00:21;;;;;;;6.10;1.93;;;;;;;;;;6315917;28;20237;-77
2022/01/12 14:03:26;;;;;;;6.70;1.67;;;;;;;;;;6316652;28;20185;-77
2022/01/12 14:06:38;;;;;;;4.17;2.40;;;;;;;;;;6315735;28;20535;-77
2022/01/12 14:09:53;;;;;;;6.87;1.70;;;;;;;;;;6315704;28;20292;-77
2022/01/12 14:12:57;;;;;;;3.13;1.70;;;;;;;;;;6316600;28;20184;-77
2022/01/12 14:16:13;;;;;;;10.23;2.00;;;;;;;;;;6314862;28;20258;-77
2022/01/12 14:19:18;;;;;;;3.50;2.00;;;;;;;;;;6316398;28;20208;-77
2022/01/12 14:22:24;;;;;;;10.30;2.10;;;;;;;;;;6315787;28;20232;-77
2022/01/12 14:25:40;;;;;;;12.10;2.03;;;;;;;;;;6315431;28;20236;-77
2022/01/12 14:28:44;;;;;;;6.80;2.23;;;;;;;;;;6315283;28;20194;-76
2022/01/12 14:31:49;;;;;;;4.67;1.67;;;;;;;;;;6314744;28;20237;-77
2022/01/12 14:34:54;;;;;;;5.73;1.90;;;;;;;;;;6314130;28;20412;-77
2022/01/12 14:38:00;;;;;;;5.63;1.93;;;;;;;;;;6315192;28;20253;-77
2022/01/12 14:41:09;;;;;;;5.17;2.30;;;;;;;;;;6314865;28;20233;-77
2022/01/12 14:44:15;;;;;;;4.70;2.20;;;;;;;;;;6314461;28;20238;-77
2022/01/12 14:47:19;;;;;;;5.30;1.70;;;;;;;;;;6314897;28;20214;-77
2022/01/12 14:50:24;;;;;;;3.30;1.70;;;;;;;;;;6314956;28;20241;-77
2022/01/12 14:53:30;;;;;;;14.27;2.40;;;;;;;;;;6314934;28;20255;-77
2022/01/12 14:56:34;;;;;;;8.43;2.57;;;;;;;;;;6314150;28;20282;-76
2022/01/12 14:59:38;;;;;;;8.43;2.27;;;;;;;;;;6290680;28;20263;-76
2022/01/12 15:02:43;;;;;;;5.30;2.10;;;;;;;;;;6265665;28;20252;-76
2022/01/12 15:05:48;;;;;;;4.37;2.20;;;;;;;;;;6264677;28;20236;-76
2022/01/12 15:08:53;;;;;;;13.07;2.97;;;;;;;;;;6265236;28;20226;-76
2022/01/12 15:11:57;;;;;;;6.03;2.10;;;;;;;;;;6264133;28;20228;-76
2022/01/12 15:15:01;;;;;;;10.07;2.70;;;;;;;;;;6263494;28;20549;-76
2022/01/12 15:18:08;;;;;;;6.03;2.00;;;;;;;;;;6263733;28;20373;-76
2022/01/12 15:21:14;;;;;;;10.27;2.33;;;;;;;;;;6263852;28;20234;-76
2022/01/12 15:24:20;;;;;;;3.97;1.80;;;;;;;;;;6263982;28;20188;-77
2022/01/12 15:27:24;;;;;;;7.87;1.90;;;;;;;;;;6264612;28;20225;-76
2022/01/12 15:30:28;;;;;;;4.30;2.30;;;;;;;;;;6263572;28;20229;-76
2022/01/12 15:33:33;;;;;;;10.80;2.40;;;;;;;;;;6264680;28;20265;-76
2022/01/12 15:36:37;;;;;;;4.80;1.93;;;;;;;;;;6263933;28;20329;-76
2022/01/12 15:39:44;;;;;;;4.87;1.80;;;;;;;;;;6264072;28;20647;-76
2022/01/12 15:42:49;;;;;;;10.80;2.13;;;;;;;;;;6264455;28;20199;-76
2022/01/12 15:45:53;;;;;;;10.00;2.33;;;;;;;;;;6262804;28;20546;-76
2022/01/12 15:48:57;;;;;;;7.37;2.43;;;;;;;;;;6262852;28;20481;-76
2022/01/12 15:52:02;;;;;;;8.87;2.13;;;;;;;;;;6262411;28;20308;-76
2022/01/12 15:55:09;;;;;;;8.37;2.10;;;;;;;;;;6263123;28;20307;-76
2022/01/12 15:58:15;;;;;;;10.43;2.30;;;;;;;;;;6262931;28;20402;-76
2022/01/12 16:01:19;;;;;;;13.30;2.37;;;;;;;;;;6262928;28;20543;-76
2022/01/12 16:04:24;;;;;;;8.27;2.00;;;;;;;;;;6262286;28;20361;-77
2022/01/12 16:07:28;;;;;;;12.97;2.00;;;;;;;;;;6263677;28;20188;-76
2022/01/12 16:10:36;;;;;;;8.00;2.30;;;;;;;;;;6263200;28;20262;-76
2022/01/12 16:13:41;;;;;;;6.27;2.43;;;;;;;;;;6263949;28;20226;-76
2022/01/12 16:17:06;;;;;;;8.83;2.23;;;;;;;;;;6262232;28;20274;-76
2022/01/12 16:20:13;;;;;;;6.63;2.00;;;;;;;;;;6261870;28;20587;-76
2022/01/12 16:23:21;;;;;;;9.77;2.37;;;;;;;;;;6262420;28;20566;-76
2022/01/12 16:26:27;;;;;;;5.17;1.90;;;;;;;;;;6262705;28;20226;-76
2022/01/12 16:29:33;;;;;;;4.80;1.97;;;;;;;;;;6263363;28;20187;-76
2022/01/12 16:32:39;;;;;;;11.07;2.00;;;;;;;;;;6264164;28;20322;-76
2022/01/12 16:35:45;;;;;;;9.43;2.17;;;;;;;;;;6262028;28;20408;-76
2022/01/12 16:38:50;;;;;;;9.43;2.10;;;;;;;;;;6263518;28;20191;-76
2022/01/12 16:41:56;;;;;;;7.20;1.97;;;;;;;;;;6261677;28;20250;-76
2022/01/12 16:45:02;;;;;;;11.50;2.27;;;;;;;;;;6268175;28;20234;-76
2022/01/12 16:48:09;;;;;;;8.00;2.03;;;;;;;;;;6286511;28;20187;-76
2022/01/12 16:51:14;;;;;;;6.23;1.67;;;;;;;;;;6286342;28;20296;-76
2022/01/12 16:54:18;;;;;;;3.40;2.10;;;;;;;;;;6286610;28;20191;-77
2022/01/12 16:57:24;;;;;;;9.10;1.90;;;;;;;;;;6287784;28;20225;-77
2022/01/12 17:00:31;;;;;;;7.07;2.33;;;;;;;;;;6311592;28;20306;-76
2022/01/12 17:03:36;;;;;;;6.43;1.73;;;;;;;;;;6310836;28;20194;-76
2022/01/12 17:06:40;;;;;;;5.30;2.37;;;;;;;;;;6310806;28;20541;-76
2022/01/12 17:09:44;;;;;;;4.97;1.93;;;;;;;;;;6311709;28;20233;-76
2022/01/12 17:12:53;;;;;;;6.90;2.00;;;;;;;;;;6311999;28;20195;-76
2022/01/12 17:16:50;;;;;;;3.10;2.03;;;;;;;;;;6310896;28;20321;-77
2022/01/12 17:19:54;;;;;;;6.33;2.23;;;;;;;;;;6311620;28;20260;-77
2022/01/12 17:23:08;;;;;;;6.50;1.90;;;;;;;;;;6312141;28;20195;-77
2022/01/12 17:26:15;;;;;;;8.67;2.00;;;;;;;;;;6310730;28;20230;-76
2022/01/12 17:29:22;;;;;;;13.47;2.17;;;;;;;;;;6311515;28;20187;-76
2022/01/12 17:32:29;;;;;;;8.90;2.17;;;;;;;;;;6311721;28;20214;-76
2022/01/12 17:35:33;;;;;;;7.57;1.80;;;;;;;;;;6311286;28;20232;-76
2022/01/12 17:38:39;;;;;;;8.43;2.00;;;;;;;;;;6312235;28;20187;-76
2022/01/12 17:41:44;;;;;;;7.37;2.07;;;;;;;;;;6310974;28;20336;-76
2022/01/12 17:44:52;;;;;;;6.80;1.67;;;;;;;;;;6311364;28;20274;-77
2022/01/12 17:47:59;;;;;;;8.77;2.00;;;;;;;;;;6310602;28;20222;-77
2022/01/12 17:51:03;;;;;;;8.70;2.17;;;;;;;;;;6310232;28;20507;-77
2022/01/12 17:54:10;;;;;;;7.03;2.13;;;;;;;;;;6311418;28;20416;-77
2022/01/12 17:57:14;;;;;;;7.50;2.20;;;;;;;;;;6311263;28;20308;-76
2022/01/12 18:00:21;;;;;;;7.70;1.97;;;;;;;;;;6310616;28;20237;-77
2022/01/12 18:03:28;;;;;;;8.80;2.30;;;;;;;;;;6311646;28;20186;-77
2022/01/12 18:06:33;;;;;;;7.83;2.10;;;;;;;;;;6310336;28;20289;-77
2022/01/12 18:09:38;;;;;;;8.37;1.90;;;;;;;;;;6310965;28;20190;-77
2022/01/12 18:12:42;;;;;;;6.57;1.97;;;;;;;;;;6311709;28;20190;-76
2022/01/12 18:15:54;;;;;;;4.60;2.27;;;;;;;;;;6315400;28;20256;-77
2022/01/12 18:19:08;;;;;;;9.27;1.90;;;;;;;;;;6315433;28;20191;-76
2022/01/12 18:22:17;;;;;;;8.70;1.83;;;;;;;;;;6314542;28;20309;-77
2022/01/12 18:25:21;;;;;;;8.00;1.73;;;;;;;;;;6315565;28;20234;-77
2022/01/12 18:28:27;;;;;;;8.10;2.10;;;;;;;;;;6315622;28;20193;-77
2022/01/12 18:31:32;;;;;;;9.80;2.53;;;;;;;;;;6306494;28;20555;-77
2022/01/12 18:34:37;;;;;;;4.13;1.80;;;;;;;;;;6314377;28;20308;-77
2022/01/12 18:37:42;;;;;;;7.33;2.10;;;;;;;;;;6315572;28;20194;-77
2022/01/12 18:40:50;;;;;;;10.67;1.90;;;;;;;;;;6315268;28;20301;-77
2022/01/12 18:43:56;;;;;;;9.17;1.90;;;;;;;;;;6314538;28;20187;-77
2022/01/12 18:47:02;;;;;;;10.23;1.77;;;;;;;;;;6314752;28;20600;-77
2022/01/12 18:50:08;;;;;;;12.23;1.90;;;;;;;;;;6313990;28;20521;-77
2022/01/12 18:53:14;;;;;;;9.20;2.10;;;;;;;;;;6315483;28;20191;-77
2022/01/12 18:56:19;;;;;;;6.13;2.03;;;;;;;;;;6314076;28;20583;-77
2022/01/12 18:59:24;;;;;;;6.27;1.70;;;;;;;;;;6313868;28;20187;-77
2022/01/12 19:02:30;;;;;;;5.17;1.80;;;;;;;;;;6315610;28;20217;-77
2022/01/12 19:05:34;;;;;;;5.30;1.83;;;;;;;;;;6314371;28;20238;-77
2022/01/12 19:08:38;;;;;;;4.60;1.90;;;;;;;;;;6313855;28;20373;-76
2022/01/12 19:11:44;;;;;;;5.80;2.13;;;;;;;;;;6313885;28;20280;-77
2022/01/12 19:14:50;;;;;;;5.87;1.73;;;;;;;;;;6313187;28;20541;-77
2022/01/12 19:17:56;;;;;;;8.97;1.93;;;;;;;;;;6314921;28;20254;-77
2022/01/12 19:21:00;;;;;;;6.63;1.77;;;;;;;;;;6313929;28;20239;-77
2022/01/12 19:24:05;;;;;;;9.83;2.40;;;;;;;;;;6313740;28;20217;-77
2022/01/12 19:27:24;;;;;;;7.77;2.10;;;;;;;;;;6313519;28;20485;-78
2022/01/12 19:30:28;;;;;;;9.63;1.60;;;;;;;;;;6313575;28;20228;-77